sensor_id;sensor_type;location;lat;lon;timestamp;P1;durP1;ratioP1;P2;durP2;ratioP2
32976;SDS011;47687;50.842;4.450;2022-10-14T00:01:07;3.05;;;1.83;;
32976;SDS011;47687;50.842;4.450;2022-10-14T00:03:38;1.67;;;1.55;;
32976;SDS011;47687;50.842;4.450;2022-10-14T00:06:05;2.50;;;1.25;;
32976;SDS011;47687;50.842;4.450;2022-10-14T00:08:33;1.58;;;1.48;;
32976;SDS011;47687;50.842;4.450;2022-10-14T00:11:03;1.55;;;1.05;;
32976;SDS011;47687;50.842;4.450;2022-10-14T00:13:30;1.70;;;1.58;;
32976;SDS011;47687;50.842;4.450;2022-10-14T00:15:56;1.35;;;1.25;;
32976;SDS011;47687;50.842;4.450;2022-10-14T00:18:21;1.92;;;1.77;;
32976;SDS011;47687;50.842;4.450;2022-10-14T00:20:54;1.58;;;1.48;;
32976;SDS011;47687;50.842;4.450;2022-10-14T00:23:24;0.90;;;0.90;;
32976;SDS011;47687;50.842;4.450;2022-10-14T00:25:51;1.92;;;1.80;;
32976;SDS011;47687;50.842;4.450;2022-10-14T00:28:17;1.48;;;1.10;;
32976;SDS011;47687;50.842;4.450;2022-10-14T00:30:53;2.50;;;1.13;;
32976;SDS011;47687;50.842;4.450;2022-10-14T00:33:19;1.52;;;1.42;;
32976;SDS011;47687;50.842;4.450;2022-10-14T00:35:52;2.20;;;1.58;;
32976;SDS011;47687;50.842;4.450;2022-10-14T00:38:22;2.20;;;1.65;;
32976;SDS011;47687;50.842;4.450;2022-10-14T00:40:48;1.35;;;1.25;;
32976;SDS011;47687;50.842;4.450;2022-10-14T00:43:13;1.75;;;1.65;;
32976;SDS011;47687;50.842;4.450;2022-10-14T00:45:39;1.83;;;1.73;;
32976;SDS011;47687;50.842;4.450;2022-10-14T00:48:05;1.52;;;1.30;;
32976;SDS011;47687;50.842;4.450;2022-10-14T00:50:31;3.50;;;1.58;;
32976;SDS011;47687;50.842;4.450;2022-10-14T00:52:58;1.83;;;1.58;;
32976;SDS011;47687;50.842;4.450;2022-10-14T00:55:24;1.55;;;1.45;;
32976;SDS011;47687;50.842;4.450;2022-10-14T00:57:50;5.70;;;1.63;;
32976;SDS011;47687;50.842;4.450;2022-10-14T01:00:16;1.00;;;1.00;;
32976;SDS011;47687;50.842;4.450;2022-10-14T01:02:44;1.17;;;1.00;;
32976;SDS011;47687;50.842;4.450;2022-10-14T01:05:12;1.98;;;1.63;;
32976;SDS011;47687;50.842;4.450;2022-10-14T01:07:42;1.40;;;1.30;;
32976;SDS011;47687;50.842;4.450;2022-10-14T01:10:54;2.08;;;1.98;;
32976;SDS011;47687;50.842;4.450;2022-10-14T01:13:39;2.75;;;1.80;;
32976;SDS011;47687;50.842;4.450;2022-10-14T01:16:20;3.47;;;2.03;;
32976;SDS011;47687;50.842;4.450;2022-10-14T01:19:15;6.57;;;2.33;;
32976;SDS011;47687;50.842;4.450;2022-10-14T01:22:07;2.70;;;2.50;;
32976;SDS011;47687;50.842;4.450;2022-10-14T01:25:17;7.10;;;2.88;;
32976;SDS011;47687;50.842;4.450;2022-10-14T01:30:39;4.70;;;1.58;;
32976;SDS011;47687;50.842;4.450;2022-10-14T01:33:19;3.75;;;2.38;;
32976;SDS011;47687;50.842;4.450;2022-10-14T01:38:45;1.85;;;1.65;;
32976;SDS011;47687;50.842;4.450;2022-10-14T01:41:16;1.23;;;1.13;;
32976;SDS011;47687;50.842;4.450;2022-10-14T01:43:49;2.30;;;2.00;;
32976;SDS011;47687;50.842;4.450;2022-10-14T01:46:16;2.47;;;2.03;;
32976;SDS011;47687;50.842;4.450;2022-10-14T01:48:46;6.72;;;1.65;;
32976;SDS011;47687;50.842;4.450;2022-10-14T01:51:17;1.63;;;1.52;;
32976;SDS011;47687;50.842;4.450;2022-10-14T01:54:00;1.80;;;1.48;;
32976;SDS011;47687;50.842;4.450;2022-10-14T01:56:30;5.47;;;2.20;;
32976;SDS011;47687;50.842;4.450;2022-10-14T01:58:57;1.95;;;1.73;;
32976;SDS011;47687;50.842;4.450;2022-10-14T02:01:24;2.03;;;1.83;;
32976;SDS011;47687;50.842;4.450;2022-10-14T02:03:50;1.95;;;1.73;;
32976;SDS011;47687;50.842;4.450;2022-10-14T02:06:25;1.08;;;0.98;;
32976;SDS011;47687;50.842;4.450;2022-10-14T02:09:02;1.38;;;1.23;;
32976;SDS011;47687;50.842;4.450;2022-10-14T02:11:43;3.22;;;1.90;;
32976;SDS011;47687;50.842;4.450;2022-10-14T02:20:35;2.35;;;2.08;;
32976;SDS011;47687;50.842;4.450;2022-10-14T02:23:00;2.60;;;2.33;;
32976;SDS011;47687;50.842;4.450;2022-10-14T02:25:59;1.48;;;1.38;;
32976;SDS011;47687;50.842;4.450;2022-10-14T02:28:26;1.40;;;1.17;;
32976;SDS011;47687;50.842;4.450;2022-10-14T02:30:58;2.78;;;1.88;;
32976;SDS011;47687;50.842;4.450;2022-10-14T02:33:30;15.88;;;2.97;;
32976;SDS011;47687;50.842;4.450;2022-10-14T02:36:03;1.20;;;1.10;;
32976;SDS011;47687;50.842;4.450;2022-10-14T02:38:31;1.58;;;1.48;;
32976;SDS011;47687;50.842;4.450;2022-10-14T02:40:58;1.85;;;1.33;;
32976;SDS011;47687;50.842;4.450;2022-10-14T02:43:28;0.88;;;0.88;;
32976;SDS011;47687;50.842;4.450;2022-10-14T02:45:57;2.72;;;1.65;;
32976;SDS011;47687;50.842;4.450;2022-10-14T02:48:26;1.92;;;1.48;;
32976;SDS011;47687;50.842;4.450;2022-10-14T02:50:51;1.80;;;1.70;;
32976;SDS011;47687;50.842;4.450;2022-10-14T02:53:17;4.78;;;1.90;;
32976;SDS011;47687;50.842;4.450;2022-10-14T02:55:43;0.98;;;0.90;;
32976;SDS011;47687;50.842;4.450;2022-10-14T02:58:08;0.73;;;0.73;;
32976;SDS011;47687;50.842;4.450;2022-10-14T03:00:34;1.42;;;1.08;;
32976;SDS011;47687;50.842;4.450;2022-10-14T03:03:00;3.00;;;2.15;;
32976;SDS011;47687;50.842;4.450;2022-10-14T03:05:25;1.77;;;1.35;;
32976;SDS011;47687;50.842;4.450;2022-10-14T03:07:51;2.90;;;2.05;;
32976;SDS011;47687;50.842;4.450;2022-10-14T03:10:17;1.60;;;1.50;;
32976;SDS011;47687;50.842;4.450;2022-10-14T03:12:43;1.15;;;1.13;;
32976;SDS011;47687;50.842;4.450;2022-10-14T03:15:08;1.10;;;1.00;;
32976;SDS011;47687;50.842;4.450;2022-10-14T03:17:34;1.75;;;1.63;;
32976;SDS011;47687;50.842;4.450;2022-10-14T03:20:01;4.32;;;1.95;;
32976;SDS011;47687;50.842;4.450;2022-10-14T03:22:28;3.00;;;1.25;;
32976;SDS011;47687;50.842;4.450;2022-10-14T03:24:53;0.93;;;0.93;;
32976;SDS011;47687;50.842;4.450;2022-10-14T03:27:19;2.33;;;1.73;;
32976;SDS011;47687;50.842;4.450;2022-10-14T03:29:44;1.42;;;1.33;;
32976;SDS011;47687;50.842;4.450;2022-10-14T03:32:10;0.75;;;0.75;;
32976;SDS011;47687;50.842;4.450;2022-10-14T03:34:36;2.08;;;1.77;;
32976;SDS011;47687;50.842;4.450;2022-10-14T03:37:01;3.28;;;1.95;;
32976;SDS011;47687;50.842;4.450;2022-10-14T03:39:27;1.92;;;1.83;;
32976;SDS011;47687;50.842;4.450;2022-10-14T03:41:52;18.95;;;2.47;;
32976;SDS011;47687;50.842;4.450;2022-10-14T03:44:18;1.83;;;1.55;;
32976;SDS011;47687;50.842;4.450;2022-10-14T03:46:44;1.42;;;1.33;;
32976;SDS011;47687;50.842;4.450;2022-10-14T03:49:09;1.73;;;1.45;;
32976;SDS011;47687;50.842;4.450;2022-10-14T03:51:35;1.00;;;0.82;;
32976;SDS011;47687;50.842;4.450;2022-10-14T03:54:02;1.33;;;1.23;;
32976;SDS011;47687;50.842;4.450;2022-10-14T03:56:28;7.50;;;2.95;;
32976;SDS011;47687;50.842;4.450;2022-10-14T03:58:53;1.02;;;0.88;;
32976;SDS011;47687;50.842;4.450;2022-10-14T04:01:19;1.30;;;1.23;;
32976;SDS011;47687;50.842;4.450;2022-10-14T04:03:45;8.52;;;1.45;;
32976;SDS011;47687;50.842;4.450;2022-10-14T04:06:11;1.08;;;1.02;;
32976;SDS011;47687;50.842;4.450;2022-10-14T04:08:38;2.22;;;2.03;;
32976;SDS011;47687;50.842;4.450;2022-10-14T04:11:04;1.20;;;1.10;;
32976;SDS011;47687;50.842;4.450;2022-10-14T04:13:30;7.07;;;2.58;;
32976;SDS011;47687;50.842;4.450;2022-10-14T04:15:56;1.77;;;1.50;;
32976;SDS011;47687;50.842;4.450;2022-10-14T04:18:21;1.10;;;0.98;;
32976;SDS011;47687;50.842;4.450;2022-10-14T04:20:47;1.98;;;1.77;;
32976;SDS011;47687;50.842;4.450;2022-10-14T04:23:13;1.63;;;1.10;;
32976;SDS011;47687;50.842;4.450;2022-10-14T04:25:38;1.95;;;1.45;;
32976;SDS011;47687;50.842;4.450;2022-10-14T04:28:04;1.98;;;1.88;;
32976;SDS011;47687;50.842;4.450;2022-10-14T04:30:30;5.75;;;1.50;;
32976;SDS011;47687;50.842;4.450;2022-10-14T04:32:56;2.47;;;1.75;;
32976;SDS011;47687;50.842;4.450;2022-10-14T04:35:21;2.67;;;1.67;;
32976;SDS011;47687;50.842;4.450;2022-10-14T04:37:47;3.10;;;1.88;;
32976;SDS011;47687;50.842;4.450;2022-10-14T04:40:12;1.83;;;1.60;;
32976;SDS011;47687;50.842;4.450;2022-10-14T04:42:54;1.65;;;1.55;;
32976;SDS011;47687;50.842;4.450;2022-10-14T04:45:27;2.08;;;1.70;;
32976;SDS011;47687;50.842;4.450;2022-10-14T04:47:55;4.70;;;2.13;;
32976;SDS011;47687;50.842;4.450;2022-10-14T04:50:32;4.63;;;2.42;;
32976;SDS011;47687;50.842;4.450;2022-10-14T04:53:00;0.98;;;0.95;;
32976;SDS011;47687;50.842;4.450;2022-10-14T04:55:26;5.07;;;2.47;;
32976;SDS011;47687;50.842;4.450;2022-10-14T04:57:53;1.45;;;1.35;;
32976;SDS011;47687;50.842;4.450;2022-10-14T05:00:19;4.22;;;1.73;;
32976;SDS011;47687;50.842;4.450;2022-10-14T05:02:44;1.73;;;1.48;;
32976;SDS011;47687;50.842;4.450;2022-10-14T05:05:10;1.65;;;1.55;;
32976;SDS011;47687;50.842;4.450;2022-10-14T05:07:43;2.60;;;2.40;;
32976;SDS011;47687;50.842;4.450;2022-10-14T05:10:13;4.63;;;2.30;;
32976;SDS011;47687;50.842;4.450;2022-10-14T05:12:51;1.80;;;1.67;;
32976;SDS011;47687;50.842;4.450;2022-10-14T05:17:54;2.67;;;2.47;;
32976;SDS011;47687;50.842;4.450;2022-10-14T05:20:19;2.35;;;1.80;;
32976;SDS011;47687;50.842;4.450;2022-10-14T05:22:45;12.85;;;2.88;;
32976;SDS011;47687;50.842;4.450;2022-10-14T05:25:11;2.22;;;2.03;;
32976;SDS011;47687;50.842;4.450;2022-10-14T05:27:36;1.88;;;1.42;;
32976;SDS011;47687;50.842;4.450;2022-10-14T05:30:02;3.47;;;1.98;;
32976;SDS011;47687;50.842;4.450;2022-10-14T05:32:28;2.05;;;1.85;;
32976;SDS011;47687;50.842;4.450;2022-10-14T05:34:54;1.60;;;1.50;;
32976;SDS011;47687;50.842;4.450;2022-10-14T05:37:19;3.00;;;2.40;;
32976;SDS011;47687;50.842;4.450;2022-10-14T05:39:45;1.63;;;1.52;;
32976;SDS011;47687;50.842;4.450;2022-10-14T05:42:10;1.52;;;1.42;;
32976;SDS011;47687;50.842;4.450;2022-10-14T05:44:36;2.83;;;2.60;;
32976;SDS011;47687;50.842;4.450;2022-10-14T05:47:02;1.00;;;1.00;;
32976;SDS011;47687;50.842;4.450;2022-10-14T05:49:27;3.75;;;3.13;;
32976;SDS011;47687;50.842;4.450;2022-10-14T05:51:53;8.02;;;2.22;;
32976;SDS011;47687;50.842;4.450;2022-10-14T05:54:18;2.15;;;1.80;;
32976;SDS011;47687;50.842;4.450;2022-10-14T05:56:44;4.60;;;3.20;;
32976;SDS011;47687;50.842;4.450;2022-10-14T05:59:10;1.52;;;1.45;;
32976;SDS011;47687;50.842;4.450;2022-10-14T06:01:36;3.65;;;2.13;;
32976;SDS011;47687;50.842;4.450;2022-10-14T06:04:02;2.45;;;2.25;;
32976;SDS011;47687;50.842;4.450;2022-10-14T06:06:28;1.95;;;1.85;;
32976;SDS011;47687;50.842;4.450;2022-10-14T06:08:54;8.25;;;2.88;;
32976;SDS011;47687;50.842;4.450;2022-10-14T06:11:20;4.20;;;2.47;;
32976;SDS011;47687;50.842;4.450;2022-10-14T06:13:46;2.60;;;2.40;;
32976;SDS011;47687;50.842;4.450;2022-10-14T06:16:12;2.65;;;2.10;;
32976;SDS011;47687;50.842;4.450;2022-10-14T06:18:37;2.60;;;1.98;;
32976;SDS011;47687;50.842;4.450;2022-10-14T06:21:03;1.30;;;1.20;;
32976;SDS011;47687;50.842;4.450;2022-10-14T06:23:30;1.50;;;1.38;;
32976;SDS011;47687;50.842;4.450;2022-10-14T06:25:56;2.78;;;2.28;;
32976;SDS011;47687;50.842;4.450;2022-10-14T06:28:22;2.00;;;1.83;;
32976;SDS011;47687;50.842;4.450;2022-10-14T06:30:48;2.13;;;1.35;;
32976;SDS011;47687;50.842;4.450;2022-10-14T06:33:15;8.55;;;2.67;;
32976;SDS011;47687;50.842;4.450;2022-10-14T06:35:40;2.33;;;2.10;;
32976;SDS011;47687;50.842;4.450;2022-10-14T06:38:06;2.88;;;2.65;;
32976;SDS011;47687;50.842;4.450;2022-10-14T06:40:31;5.57;;;3.63;;
32976;SDS011;47687;50.842;4.450;2022-10-14T06:42:57;22.88;;;5.55;;
32976;SDS011;47687;50.842;4.450;2022-10-14T06:45:23;22.92;;;3.53;;
32976;SDS011;47687;50.842;4.450;2022-10-14T06:47:49;3.03;;;1.23;;
32976;SDS011;47687;50.842;4.450;2022-10-14T06:50:15;1.90;;;1.60;;
32976;SDS011;47687;50.842;4.450;2022-10-14T06:52:41;2.50;;;2.30;;
32976;SDS011;47687;50.842;4.450;2022-10-14T06:55:09;2.13;;;1.92;;
32976;SDS011;47687;50.842;4.450;2022-10-14T06:57:36;2.05;;;1.95;;
32976;SDS011;47687;50.842;4.450;2022-10-14T07:00:03;1.60;;;1.25;;
32976;SDS011;47687;50.842;4.450;2022-10-14T07:02:30;2.30;;;2.03;;
32976;SDS011;47687;50.842;4.450;2022-10-14T07:04:56;2.10;;;1.92;;
32976;SDS011;47687;50.842;4.450;2022-10-14T07:07:22;2.13;;;1.95;;
32976;SDS011;47687;50.842;4.450;2022-10-14T07:09:48;1.73;;;1.63;;
32976;SDS011;47687;50.842;4.450;2022-10-14T07:12:14;1.63;;;1.50;;
32976;SDS011;47687;50.842;4.450;2022-10-14T07:14:41;2.22;;;1.88;;
32976;SDS011;47687;50.842;4.450;2022-10-14T07:17:07;1.27;;;1.13;;
32976;SDS011;47687;50.842;4.450;2022-10-14T07:19:33;18.77;;;1.92;;
32976;SDS011;47687;50.842;4.450;2022-10-14T07:21:58;2.25;;;1.30;;
32976;SDS011;47687;50.842;4.450;2022-10-14T07:24:24;1.60;;;1.50;;
32976;SDS011;47687;50.842;4.450;2022-10-14T07:26:50;1.85;;;1.75;;
32976;SDS011;47687;50.842;4.450;2022-10-14T07:29:15;2.55;;;2.00;;
32976;SDS011;47687;50.842;4.450;2022-10-14T07:31:41;2.33;;;2.13;;
32976;SDS011;47687;50.842;4.450;2022-10-14T07:34:07;1.50;;;1.40;;
32976;SDS011;47687;50.842;4.450;2022-10-14T07:36:33;1.45;;;1.35;;
32976;SDS011;47687;50.842;4.450;2022-10-14T07:38:59;1.35;;;1.25;;
32976;SDS011;47687;50.842;4.450;2022-10-14T07:41:25;4.50;;;2.58;;
32976;SDS011;47687;50.842;4.450;2022-10-14T07:43:55;2.03;;;1.83;;
32976;SDS011;47687;50.842;4.450;2022-10-14T07:46:26;1.40;;;1.30;;
32976;SDS011;47687;50.842;4.450;2022-10-14T07:48:56;1.02;;;1.02;;
32976;SDS011;47687;50.842;4.450;2022-10-14T07:51:24;2.25;;;1.98;;
32976;SDS011;47687;50.842;4.450;2022-10-14T07:53:51;1.15;;;1.05;;
32976;SDS011;47687;50.842;4.450;2022-10-14T07:56:18;1.50;;;1.40;;
32976;SDS011;47687;50.842;4.450;2022-10-14T07:58:44;1.70;;;1.40;;
32976;SDS011;47687;50.842;4.450;2022-10-14T08:01:10;1.35;;;1.17;;
32976;SDS011;47687;50.842;4.450;2022-10-14T08:03:36;1.38;;;1.27;;
32976;SDS011;47687;50.842;4.450;2022-10-14T08:06:02;2.33;;;1.98;;
32976;SDS011;47687;50.842;4.450;2022-10-14T08:08:29;1.25;;;1.15;;
32976;SDS011;47687;50.842;4.450;2022-10-14T08:13:49;1.08;;;1.08;;
32976;SDS011;47687;50.842;4.450;2022-10-14T08:16:16;0.60;;;0.60;;
32976;SDS011;47687;50.842;4.450;2022-10-14T08:18:43;3.67;;;1.52;;
32976;SDS011;47687;50.842;4.450;2022-10-14T08:21:10;1.27;;;1.17;;
32976;SDS011;47687;50.842;4.450;2022-10-14T08:23:36;0.50;;;0.50;;
32976;SDS011;47687;50.842;4.450;2022-10-14T08:26:01;0.60;;;0.60;;
32976;SDS011;47687;50.842;4.450;2022-10-14T08:28:27;1.05;;;0.95;;
32976;SDS011;47687;50.842;4.450;2022-10-14T08:30:53;8.25;;;3.58;;
32976;SDS011;47687;50.842;4.450;2022-10-14T08:33:19;1.15;;;1.05;;
32976;SDS011;47687;50.842;4.450;2022-10-14T08:35:45;1.75;;;1.42;;
32976;SDS011;47687;50.842;4.450;2022-10-14T08:38:10;0.68;;;0.68;;
32976;SDS011;47687;50.842;4.450;2022-10-14T08:40:55;1.10;;;1.00;;
32976;SDS011;47687;50.842;4.450;2022-10-14T08:44:27;0.98;;;0.98;;
32976;SDS011;47687;50.842;4.450;2022-10-14T08:46:56;1.20;;;1.10;;
32976;SDS011;47687;50.842;4.450;2022-10-14T08:52:09;0.63;;;0.63;;
32976;SDS011;47687;50.842;4.450;2022-10-14T08:54:45;1.10;;;1.00;;
32976;SDS011;47687;50.842;4.450;2022-10-14T08:57:22;0.60;;;0.60;;
32976;SDS011;47687;50.842;4.450;2022-10-14T08:59:51;0.68;;;0.68;;
32976;SDS011;47687;50.842;4.450;2022-10-14T09:05:16;0.50;;;0.50;;
32976;SDS011;47687;50.842;4.450;2022-10-14T09:07:45;0.20;;;0.20;;
32976;SDS011;47687;50.842;4.450;2022-10-14T09:10:17;1.13;;;1.02;;
32976;SDS011;47687;50.842;4.450;2022-10-14T09:12:47;0.52;;;0.52;;
32976;SDS011;47687;50.842;4.450;2022-10-14T09:18:39;1.13;;;1.02;;
32976;SDS011;47687;50.842;4.450;2022-10-14T09:23:45;0.77;;;0.75;;
32976;SDS011;47687;50.842;4.450;2022-10-14T09:26:13;1.02;;;0.88;;
32976;SDS011;47687;50.842;4.450;2022-10-14T09:28:43;0.50;;;0.50;;
32976;SDS011;47687;50.842;4.450;2022-10-14T09:31:10;0.47;;;0.47;;
32976;SDS011;47687;50.842;4.450;2022-10-14T09:33:37;0.55;;;0.52;;
32976;SDS011;47687;50.842;4.450;2022-10-14T09:36:04;0.43;;;0.43;;
32976;SDS011;47687;50.842;4.450;2022-10-14T09:38:48;0.90;;;0.75;;
32976;SDS011;47687;50.842;4.450;2022-10-14T09:41:17;0.43;;;0.43;;
32976;SDS011;47687;50.842;4.450;2022-10-14T09:46:51;0.50;;;0.50;;
32976;SDS011;47687;50.842;4.450;2022-10-14T09:49:32;0.20;;;0.20;;
32976;SDS011;47687;50.842;4.450;2022-10-14T09:52:03;0.93;;;0.68;;
32976;SDS011;47687;50.842;4.450;2022-10-14T09:54:29;0.50;;;0.50;;
32976;SDS011;47687;50.842;4.450;2022-10-14T09:56:57;0.32;;;0.32;;
32976;SDS011;47687;50.842;4.450;2022-10-14T09:59:26;0.52;;;0.52;;
32976;SDS011;47687;50.842;4.450;2022-10-14T10:01:53;0.30;;;0.30;;
32976;SDS011;47687;50.842;4.450;2022-10-14T10:07:03;0.68;;;0.55;;
32976;SDS011;47687;50.842;4.450;2022-10-14T10:09:31;0.45;;;0.45;;
32976;SDS011;47687;50.842;4.450;2022-10-14T10:11:57;0.20;;;0.20;;
32976;SDS011;47687;50.842;4.450;2022-10-14T10:14:31;0.20;;;0.20;;
32976;SDS011;47687;50.842;4.450;2022-10-14T10:19:40;0.38;;;0.38;;
32976;SDS011;47687;50.842;4.450;2022-10-14T10:22:30;0.20;;;0.20;;
32976;SDS011;47687;50.842;4.450;2022-10-14T10:27:38;0.82;;;0.82;;
32976;SDS011;47687;50.842;4.450;2022-10-14T10:38:47;0.20;;;0.20;;
32976;SDS011;47687;50.842;4.450;2022-10-14T10:44:41;1.40;;;0.45;;
32976;SDS011;47687;50.842;4.450;2022-10-14T10:50:21;0.30;;;0.30;;
32976;SDS011;47687;50.842;4.450;2022-10-14T10:53:02;0.52;;;0.52;;
32976;SDS011;47687;50.842;4.450;2022-10-14T11:01:03;0.50;;;0.50;;
32976;SDS011;47687;50.842;4.450;2022-10-14T11:03:48;0.73;;;0.70;;
32976;SDS011;47687;50.842;4.450;2022-10-14T11:09:42;0.47;;;0.47;;
32976;SDS011;47687;50.842;4.450;2022-10-14T11:15:18;0.47;;;0.47;;
32976;SDS011;47687;50.842;4.450;2022-10-14T11:18:17;0.73;;;0.73;;
32976;SDS011;47687;50.842;4.450;2022-10-14T11:29:38;0.35;;;0.35;;
32976;SDS011;47687;50.842;4.450;2022-10-14T11:40:27;0.50;;;0.50;;
32976;SDS011;47687;50.842;4.450;2022-10-14T11:45:46;0.70;;;0.70;;
32976;SDS011;47687;50.842;4.450;2022-10-14T11:48:20;0.20;;;0.20;;
32976;SDS011;47687;50.842;4.450;2022-10-14T11:53:40;0.40;;;0.40;;
32976;SDS011;47687;50.842;4.450;2022-10-14T11:56:20;0.30;;;0.30;;
32976;SDS011;47687;50.842;4.450;2022-10-14T11:58:53;0.73;;;0.73;;
32976;SDS011;47687;50.842;4.450;2022-10-14T12:01:23;1.23;;;0.98;;
32976;SDS011;47687;50.842;4.450;2022-10-14T12:04:04;0.60;;;0.60;;
32976;SDS011;47687;50.842;4.450;2022-10-14T12:06:37;0.77;;;0.77;;
32976;SDS011;47687;50.842;4.450;2022-10-14T12:09:55;1.23;;;1.13;;
32976;SDS011;47687;50.842;4.450;2022-10-14T12:11:56;1.33;;;1.17;;
32976;SDS011;47687;50.842;4.450;2022-10-14T12:14:48;0.82;;;0.70;;
32976;SDS011;47687;50.842;4.450;2022-10-14T12:17:36;1.00;;;0.98;;
32976;SDS011;47687;50.842;4.450;2022-10-14T12:22:46;1.13;;;1.02;;
32976;SDS011;47687;50.842;4.450;2022-10-14T12:25:14;2.85;;;1.02;;
32976;SDS011;47687;50.842;4.450;2022-10-14T12:27:44;1.30;;;1.02;;
32976;SDS011;47687;50.842;4.450;2022-10-14T12:33:04;0.98;;;0.55;;
32976;SDS011;47687;50.842;4.450;2022-10-14T12:35:52;1.15;;;1.05;;
32976;SDS011;47687;50.842;4.450;2022-10-14T12:38:23;1.85;;;1.20;;
32976;SDS011;47687;50.842;4.450;2022-10-14T12:40:50;0.50;;;0.38;;
32976;SDS011;47687;50.842;4.450;2022-10-14T12:43:25;0.88;;;0.82;;
32976;SDS011;47687;50.842;4.450;2022-10-14T12:45:58;0.95;;;0.95;;
32976;SDS011;47687;50.842;4.450;2022-10-14T12:48:33;0.88;;;0.88;;
32976;SDS011;47687;50.842;4.450;2022-10-14T12:51:11;0.90;;;0.90;;
32976;SDS011;47687;50.842;4.450;2022-10-14T12:53:50;1.85;;;1.73;;
32976;SDS011;47687;50.842;4.450;2022-10-14T12:56:31;1.40;;;1.05;;
32976;SDS011;47687;50.842;4.450;2022-10-14T12:59:00;0.93;;;0.93;;
32976;SDS011;47687;50.842;4.450;2022-10-14T13:01:29;0.60;;;0.60;;
32976;SDS011;47687;50.842;4.450;2022-10-14T13:03:59;1.52;;;1.38;;
32976;SDS011;47687;50.842;4.450;2022-10-14T13:11:36;0.38;;;0.38;;
32976;SDS011;47687;50.842;4.450;2022-10-14T13:22:11;0.40;;;0.40;;
32976;SDS011;47687;50.842;4.450;2022-10-14T13:24:49;2.15;;;1.42;;
32976;SDS011;47687;50.842;4.450;2022-10-14T13:30:15;1.20;;;0.95;;
32976;SDS011;47687;50.842;4.450;2022-10-14T13:35:46;1.73;;;1.63;;
32976;SDS011;47687;50.842;4.450;2022-10-14T13:38:21;1.13;;;1.05;;
32976;SDS011;47687;50.842;4.450;2022-10-14T13:40:55;1.60;;;1.02;;
32976;SDS011;47687;50.842;4.450;2022-10-14T13:48:38;2.28;;;1.10;;
32976;SDS011;47687;50.842;4.450;2022-10-14T13:53:52;0.60;;;0.60;;
32976;SDS011;47687;50.842;4.450;2022-10-14T13:56:26;0.63;;;0.63;;
32976;SDS011;47687;50.842;4.450;2022-10-14T13:58:54;1.95;;;0.88;;
32976;SDS011;47687;50.842;4.450;2022-10-14T14:01:20;0.82;;;0.75;;
32976;SDS011;47687;50.842;4.450;2022-10-14T14:03:55;0.45;;;0.45;;
32976;SDS011;47687;50.842;4.450;2022-10-14T14:06:22;1.95;;;0.80;;
32976;SDS011;47687;50.842;4.450;2022-10-14T14:08:56;0.85;;;0.70;;
32976;SDS011;47687;50.842;4.450;2022-10-14T14:11:23;0.60;;;0.60;;
32976;SDS011;47687;50.842;4.450;2022-10-14T14:14:05;0.30;;;0.30;;
32976;SDS011;47687;50.842;4.450;2022-10-14T14:16:37;0.43;;;0.43;;
32976;SDS011;47687;50.842;4.450;2022-10-14T14:22:20;0.43;;;0.43;;
32976;SDS011;47687;50.842;4.450;2022-10-14T14:25:14;0.35;;;0.35;;
32976;SDS011;47687;50.842;4.450;2022-10-14T14:27:56;0.90;;;0.90;;
32976;SDS011;47687;50.842;4.450;2022-10-14T14:30:26;1.10;;;0.80;;
32976;SDS011;47687;50.842;4.450;2022-10-14T14:32:54;0.30;;;0.30;;
32976;SDS011;47687;50.842;4.450;2022-10-14T14:35:22;1.10;;;1.05;;
32976;SDS011;47687;50.842;4.450;2022-10-14T14:37:48;1.35;;;1.13;;
32976;SDS011;47687;50.842;4.450;2022-10-14T14:40:18;0.63;;;0.63;;
32976;SDS011;47687;50.842;4.450;2022-10-14T14:42:47;1.00;;;0.95;;
32976;SDS011;47687;50.842;4.450;2022-10-14T14:45:23;0.93;;;0.90;;
32976;SDS011;47687;50.842;4.450;2022-10-14T14:47:52;0.80;;;0.77;;
32976;SDS011;47687;50.842;4.450;2022-10-14T14:50:28;1.63;;;1.02;;
32976;SDS011;47687;50.842;4.450;2022-10-14T14:58:45;1.67;;;1.33;;
32976;SDS011;47687;50.842;4.450;2022-10-14T15:01:18;4.47;;;1.98;;
32976;SDS011;47687;50.842;4.450;2022-10-14T15:04:35;0.70;;;0.70;;
32976;SDS011;47687;50.842;4.450;2022-10-14T15:09:48;1.23;;;1.00;;
32976;SDS011;47687;50.842;4.450;2022-10-14T15:12:27;0.82;;;0.82;;
32976;SDS011;47687;50.842;4.450;2022-10-14T15:14:58;1.05;;;0.93;;
32976;SDS011;47687;50.842;4.450;2022-10-14T15:17:32;1.27;;;1.00;;
32976;SDS011;47687;50.842;4.450;2022-10-14T15:32:48;0.77;;;0.77;;
32976;SDS011;47687;50.842;4.450;2022-10-14T15:35:16;1.55;;;1.10;;
32976;SDS011;47687;50.842;4.450;2022-10-14T15:37:44;1.63;;;0.98;;
32976;SDS011;47687;50.842;4.450;2022-10-14T15:42:36;0.88;;;0.88;;
32976;SDS011;47687;50.842;4.450;2022-10-14T15:45:01;0.98;;;0.88;;
32976;SDS011;47687;50.842;4.450;2022-10-14T15:47:27;3.53;;;1.08;;
32976;SDS011;47687;50.842;4.450;2022-10-14T15:49:53;0.65;;;0.65;;
32976;SDS011;47687;50.842;4.450;2022-10-14T15:52:19;0.85;;;0.85;;
32976;SDS011;47687;50.842;4.450;2022-10-14T15:54:45;0.85;;;0.85;;
32976;SDS011;47687;50.842;4.450;2022-10-14T15:57:11;1.52;;;0.85;;
32976;SDS011;47687;50.842;4.450;2022-10-14T15:59:37;0.68;;;0.68;;
32976;SDS011;47687;50.842;4.450;2022-10-14T16:02:03;0.98;;;0.90;;
32976;SDS011;47687;50.842;4.450;2022-10-14T16:04:35;0.63;;;0.60;;
32976;SDS011;47687;50.842;4.450;2022-10-14T16:07:01;0.85;;;0.85;;
32976;SDS011;47687;50.842;4.450;2022-10-14T16:09:27;1.00;;;1.00;;
32976;SDS011;47687;50.842;4.450;2022-10-14T16:11:53;0.60;;;0.60;;
32976;SDS011;47687;50.842;4.450;2022-10-14T16:14:25;0.30;;;0.30;;
32976;SDS011;47687;50.842;4.450;2022-10-14T16:16:54;0.60;;;0.40;;
32976;SDS011;47687;50.842;4.450;2022-10-14T16:19:20;1.23;;;0.93;;
32976;SDS011;47687;50.842;4.450;2022-10-14T16:21:45;0.95;;;0.65;;
32976;SDS011;47687;50.842;4.450;2022-10-14T16:24:18;0.80;;;0.60;;
32976;SDS011;47687;50.842;4.450;2022-10-14T16:26:45;1.27;;;0.88;;
32976;SDS011;47687;50.842;4.450;2022-10-14T16:29:13;0.50;;;0.50;;
32976;SDS011;47687;50.842;4.450;2022-10-14T16:31:39;6.75;;;1.38;;
32976;SDS011;47687;50.842;4.450;2022-10-14T16:34:05;0.50;;;0.50;;
32976;SDS011;47687;50.842;4.450;2022-10-14T16:36:30;0.50;;;0.50;;
32976;SDS011;47687;50.842;4.450;2022-10-14T16:38:56;0.40;;;0.40;;
32976;SDS011;47687;50.842;4.450;2022-10-14T16:41:21;0.52;;;0.52;;
32976;SDS011;47687;50.842;4.450;2022-10-14T16:43:47;0.60;;;0.60;;
32976;SDS011;47687;50.842;4.450;2022-10-14T16:46:13;0.75;;;0.75;;
32976;SDS011;47687;50.842;4.450;2022-10-14T16:48:39;1.67;;;1.17;;
32976;SDS011;47687;50.842;4.450;2022-10-14T16:51:07;1.75;;;0.85;;
32976;SDS011;47687;50.842;4.450;2022-10-14T16:53:33;0.75;;;0.75;;
32976;SDS011;47687;50.842;4.450;2022-10-14T16:56:05;1.13;;;0.95;;
32976;SDS011;47687;50.842;4.450;2022-10-14T16:58:52;0.95;;;0.95;;
32976;SDS011;47687;50.842;4.450;2022-10-14T17:01:23;0.98;;;0.85;;
32976;SDS011;47687;50.842;4.450;2022-10-14T17:03:49;1.20;;;1.10;;
32976;SDS011;47687;50.842;4.450;2022-10-14T17:06:16;1.00;;;1.00;;
32976;SDS011;47687;50.842;4.450;2022-10-14T17:08:42;1.25;;;1.00;;
32976;SDS011;47687;50.842;4.450;2022-10-14T17:11:17;0.98;;;0.90;;
32976;SDS011;47687;50.842;4.450;2022-10-14T17:13:49;0.90;;;0.82;;
32976;SDS011;47687;50.842;4.450;2022-10-14T17:16:19;2.05;;;1.85;;
32976;SDS011;47687;50.842;4.450;2022-10-14T17:18:48;1.45;;;1.35;;
32976;SDS011;47687;50.842;4.450;2022-10-14T17:21:14;5.60;;;2.80;;
32976;SDS011;47687;50.842;4.450;2022-10-14T17:23:41;1.58;;;1.15;;
32976;SDS011;47687;50.842;4.450;2022-10-14T17:26:08;1.73;;;1.63;;
32976;SDS011;47687;50.842;4.450;2022-10-14T17:28:37;1.97;;;1.77;;
32976;SDS011;47687;50.842;4.450;2022-10-14T17:31:10;2.33;;;2.13;;
32976;SDS011;47687;50.842;4.450;2022-10-14T17:33:43;3.78;;;2.70;;